Aeroporto :
LOGIN :

Iscrizione | Disclaimer

   EN    FR    IT 

 










Sommario :    VFR   VFR Marginale   IFR   IFR Intensivo   IFR Molto Intensivo
Visibilità : 
Base nubi : 
>= 8 km
>= 3000ft
5 / 8 km
1000 / 3000 ft
1500m / 5 km
500 / 1000 ft
800 / 1500m
200 / 500 ft
< 800m
< 200 ft
Simboli :   Temporali  Nebbia  Neve Forte  Precipitazioni Forti  Vento > 20 kt
SIGMETs :   Varie  Temporali  Ghiacco  Turbolenza  Onda orograficha  Ceneri Vulcaniche






- Altitudine del aeroporto : 538 ft
- Codice IATA : TNF


LFPN - Toussus Le Noble

ULTIMO METAR :
  • 300900Z AUTO VRB02KT CAVOK 15/09 Q1012 NOSIG

METARs OBSOLETI :
  • 300830Z AUTO VRB01KT CAVOK 13/09 Q1012 NOSIG
  • 300800Z AUTO 00000KT CAVOK 11/08 Q1012 NOSIG
  • 300730Z AUTO VRB01KT CAVOK 09/08 Q1012 NOSIG
  • 300700Z AUTO 00000KT 8000 NSC 08/07 Q1012 TEMPO 4000 BR
  • 300630Z AUTO 28001KT 7000 1600 NSC 06/06 Q1012 TEMPO 4000 BR

TAF TAF LFPN
Valido dal 30 a 09 ore il 30 a 18 ore UTC


300800Z 3009/3018 20005KT CAVOK
BECMG 3012/3014 22010KT
ATIS : +33 1 39 56 54 70



MetMap, La meteo Aeronautica in un colpo d'occhio ! - Copyright ORBIFLY Dicembre 2007 - Disclaimer

ORBIFLY MET'MAP TEAM :

Programmazione e sviluppo : Alexandra Zaïnal
Concezione : Baudouin d'Aumeries
Supporto tecnico e logistico : Manuel Goepfert
Aiuto : Marc-Olivier Méhu
Aiuto per la traduzione : Arnaldo La Scala




FONTI E CREDITI :

   NOAA